Aviation Digital Data Service (ADDS)

Output produced by METARs form (1322 UTC 21 August 2019)
found at http://www.aviationweather.gov/metar/data/
 
KPHL 211134Z 2112/2218 20005KT P6SM FEW025 SCT060 BKN140 
     TEMPO 2112/2113 6SM BR 
     FM211300 20006KT P6SM VCSH BKN015 
     FM211600 21010KT P6SM VCSH SCT050 
     FM212000 23012G18KT P6SM VCSH SCT050 
     PROB30 2122/2202 4SM TSRA OVC025CB 
     FM220200 22006KT P6SM BKN100 
     FM220900 28004KT 6SM BR SCT250